Time;durP1;ratioP1;P1;durP2;ratioP2;P2;SDS_P1;SDS_P2;PMS_P1;PMS_P2;Temp;Humidity;BMP_temperature;BMP_pressure;BME280_temperature;BME280_humidity;BME280_pressure;Samples;Min_cycle;Max_cycle;Signal;HPM_P1;HPM_P2
2021/12/25 00:00:10;;;;;;;0.80;0.80;;;13.00;44.50;;;;;;5129201;27;49068;-17
2021/12/25 00:02:37;;;;;;;0.90;0.90;;;13.00;44.50;;;;;;5129792;27;47297;-17
2021/12/25 00:05:04;;;;;;;0.50;0.50;;;13.00;44.50;;;;;;5129055;27;46952;-17
2021/12/25 00:07:32;;;;;;;0.90;0.90;;;13.00;44.50;;;;;;5129447;27;46837;-17
2021/12/25 00:10:00;;;;;;;0.80;0.80;;;13.00;44.50;;;;;;5128950;27;49156;-18
2021/12/25 00:12:26;;;;;;;0.60;0.60;;;13.00;44.60;;;;;;5129502;27;47055;-18
2021/12/25 00:14:54;;;;;;;0.60;0.60;;;13.00;44.50;;;;;;5129154;27;46984;-18
2021/12/25 00:17:20;;;;;;;1.37;0.60;;;13.00;44.50;;;;;;5129097;27;46875;-18
2021/12/25 00:19:47;;;;;;;0.80;0.80;;;13.00;44.50;;;;;;5129011;27;49131;-17
2021/12/25 00:22:15;;;;;;;0.80;0.80;;;13.00;44.50;;;;;;5128810;27;47075;-17
2021/12/25 00:24:45;;;;;;;0.70;0.70;;;13.00;44.50;;;;;;5129156;27;47055;-18
2021/12/25 00:27:34;;;;;;;1.00;0.80;;;13.00;44.50;;;;;;5129134;27;47251;-18
2021/12/25 00:30:12;;;;;;;0.80;0.80;;;13.00;44.60;;;;;;5128455;27;47806;-18
2021/12/25 00:32:50;;;;;;;0.63;0.63;;;13.00;44.60;;;;;;5128891;27;46886;-18
2021/12/25 00:35:17;;;;;;;0.70;0.70;;;13.00;44.60;;;;;;5128960;27;46801;-18
2021/12/25 00:37:44;;;;;;;1.20;0.90;;;13.00;44.50;;;;;;5129291;27;46962;-17
2021/12/25 00:40:13;;;;;;;0.70;0.70;;;13.00;44.60;;;;;;5128533;27;47893;-18
2021/12/25 00:42:40;;;;;;;0.70;0.70;;;13.00;44.50;;;;;;5128923;27;46811;-18
2021/12/25 00:45:07;;;;;;;0.80;0.80;;;13.00;44.50;;;;;;5128219;27;46808;-17
2021/12/25 00:47:33;;;;;;;0.70;0.70;;;13.00;44.60;;;;;;5128646;27;46941;-17
2021/12/25 00:50:00;;;;;;;0.80;0.80;;;13.00;44.50;;;;;;5128300;27;48084;-17
2021/12/25 00:52:27;;;;;;;0.70;0.70;;;13.00;44.50;;;;;;5128726;27;47195;-18
2021/12/25 00:54:53;;;;;;;0.70;0.70;;;13.00;44.50;;;;;;5128437;27;46899;-18
2021/12/25 00:57:22;;;;;;;0.80;0.80;;;13.00;44.60;;;;;;5128826;27;46875;-18
2021/12/25 00:59:48;;;;;;;0.70;0.70;;;13.00;44.60;;;;;;5128426;27;48924;-17
2021/12/25 01:02:15;;;;;;;0.80;0.80;;;13.00;44.60;;;;;;5128447;27;47009;-18
2021/12/25 01:04:42;;;;;;;0.63;0.63;;;13.00;44.50;;;;;;5128248;27;46846;-17
2021/12/25 01:07:08;;;;;;;0.70;0.70;;;13.00;44.50;;;;;;5128523;27;47233;-17
2021/12/25 01:09:35;;;;;;;0.70;0.70;;;13.00;44.60;;;;;;5127987;27;48205;-17
2021/12/25 01:12:02;;;;;;;0.77;0.77;;;13.00;44.50;;;;;;5128214;27;47158;-17
2021/12/25 01:14:35;;;;;;;0.70;0.70;;;13.00;44.60;;;;;;5128336;27;46914;-18
2021/12/25 01:25:50;;;;;;;0.70;0.70;;;13.00;44.60;;;;;;5103737;27;47439;-15
2021/12/25 01:28:55;;;;;;;0.77;0.73;;;13.00;44.60;;;;;;5128349;27;46895;-15
2021/12/25 01:31:26;;;;;;;0.60;0.60;;;13.00;44.60;;;;;;5127554;27;47738;-15
2021/12/25 01:36:54;;;;;;;0.87;0.87;;;13.00;44.60;;;;;;5125070;27;46936;-15
2021/12/25 01:39:27;;;;;;;0.70;0.70;;;13.00;44.70;;;;;;5127927;27;46906;-15
2021/12/25 01:42:06;;;;;;;0.83;0.83;;;13.00;44.70;;;;;;5127966;27;48179;-15
2021/12/25 01:50:02;;;;;;;1.47;0.70;;;13.00;44.70;;;;;;5126842;27;47094;-15
2021/12/25 01:52:30;;;;;;;0.70;0.70;;;13.00;44.60;;;;;;5127317;27;48805;-15
2021/12/25 01:54:58;;;;;;;0.70;0.70;;;13.00;44.70;;;;;;5127685;27;47070;-16
2021/12/25 01:57:25;;;;;;;0.83;0.83;;;13.00;44.80;;;;;;5126433;27;46806;-15
2021/12/25 01:59:52;;;;;;;0.73;0.73;;;13.00;44.70;;;;;;5127781;27;47267;-15
2021/12/25 02:02:20;;;;;;;0.70;0.70;;;13.00;44.70;;;;;;5127624;27;48796;-15
2021/12/25 02:04:46;;;;;;;0.70;0.70;;;13.00;44.80;;;;;;5127432;27;46921;-15
2021/12/25 02:07:13;;;;;;;0.70;0.70;;;13.00;44.60;;;;;;5127375;27;47085;-15
2021/12/25 02:09:40;;;;;;;0.87;0.80;;;13.00;44.60;;;;;;5127539;27;46884;-15
2021/12/25 02:12:07;;;;;;;0.83;0.83;;;13.00;44.70;;;;;;5127504;27;46842;-16
2021/12/25 02:14:35;;;;;;;0.80;0.80;;;13.00;44.50;;;;;;5127374;27;47013;-15
2021/12/25 02:17:14;;;;;;;0.70;0.70;;;13.00;44.70;;;;;;5127274;27;46824;-15
2021/12/25 02:19:47;;;;;;;0.50;0.50;;;13.00;44.60;;;;;;5127274;27;47224;-15
2021/12/25 02:22:13;;;;;;;1.37;0.80;;;13.00;44.60;;;;;;5126887;27;49015;-15
2021/12/25 02:24:40;;;;;;;0.60;0.60;;;13.00;44.70;;;;;;5126955;27;46932;-15
2021/12/25 02:27:07;;;;;;;0.93;0.90;;;13.00;44.80;;;;;;5127246;27;46998;-15
2021/12/25 02:29:34;;;;;;;0.60;0.60;;;13.00;44.60;;;;;;5127251;27;47221;-15
2021/12/25 02:32:01;;;;;;;0.60;0.60;;;13.00;44.70;;;;;;5126973;27;47898;-15
2021/12/25 02:34:28;;;;;;;0.87;0.87;;;13.00;44.60;;;;;;5126596;27;47437;-15
2021/12/25 02:36:56;;;;;;;0.83;0.80;;;13.00;44.60;;;;;;5126737;27;46932;-16
2021/12/25 02:39:22;;;;;;;0.87;0.87;;;13.00;44.80;;;;;;5127255;27;46950;-15
2021/12/25 02:41:50;;;;;;;1.03;0.80;;;13.00;44.80;;;;;;5126649;27;48078;-15
2021/12/25 02:44:17;;;;;;;0.70;0.70;;;13.00;44.70;;;;;;5126133;27;47403;-15
2021/12/25 02:46:43;;;;;;;0.80;0.80;;;13.00;44.70;;;;;;5126951;27;46880;-15
2021/12/25 02:49:12;;;;;;;0.73;0.70;;;13.00;44.70;;;;;;5126470;27;47073;-15
2021/12/25 02:51:39;;;;;;;0.87;0.87;;;13.00;44.70;;;;;;5126768;27;48105;-16
2021/12/25 02:54:07;;;;;;;0.70;0.70;;;13.00;44.60;;;;;;5126389;27;46990;-15
2021/12/25 02:56:33;;;;;;;0.80;0.80;;;13.00;44.60;;;;;;5126921;27;46910;-15
2021/12/25 02:59:00;;;;;;;1.03;0.97;;;13.00;44.60;;;;;;5126423;27;47397;-15
2021/12/25 03:01:27;;;;;;;0.73;0.73;;;13.00;44.60;;;;;;5126758;27;48305;-15
2021/12/25 03:03:56;;;;;;;0.80;0.80;;;13.10;44.60;;;;;;5126573;27;46916;-15
2021/12/25 03:06:25;;;;;;;1.00;1.00;;;13.00;44.60;;;;;;5126732;27;46899;-15
2021/12/25 03:08:52;;;;;;;0.90;0.90;;;13.10;44.70;;;;;;5127133;27;46824;-14
2021/12/25 03:11:20;;;;;;;0.87;0.87;;;13.00;44.60;;;;;;5130067;27;47870;-14
2021/12/25 03:13:57;;;;;;;0.70;0.70;;;13.00;44.70;;;;;;5130073;27;47009;-15
2021/12/25 03:16:24;;;;;;;0.70;0.70;;;13.10;44.80;;;;;;5130300;27;46881;-15
2021/12/25 03:18:53;;;;;;;0.90;0.90;;;13.00;44.70;;;;;;5130250;27;47130;-15
2021/12/25 03:21:20;;;;;;;0.80;0.80;;;13.00;44.60;;;;;;5129776;27;49126;-15
2021/12/25 03:23:47;;;;;;;0.87;0.87;;;13.10;44.70;;;;;;5129731;27;46930;-16
2021/12/25 03:26:14;;;;;;;0.80;0.80;;;13.10;44.70;;;;;;5130152;27;46818;-15
2021/12/25 03:28:44;;;;;;;0.80;0.80;;;13.10;44.70;;;;;;5130217;27;46951;-15
2021/12/25 03:31:16;;;;;;;0.60;0.60;;;13.10;44.70;;;;;;5129827;27;48240;-15
2021/12/25 03:33:43;;;;;;;0.90;0.90;;;13.10;44.60;;;;;;5129684;27;47273;-15
2021/12/25 03:36:10;;;;;;;0.87;0.87;;;13.10;44.70;;;;;;5129700;27;46993;-15
2021/12/25 03:38:36;;;;;;;0.80;0.80;;;13.10;44.70;;;;;;5130231;27;47114;-15
2021/12/25 03:41:05;;;;;;;0.80;0.80;;;13.10;44.70;;;;;;5129525;27;46943;-16
2021/12/25 03:43:32;;;;;;;0.90;0.90;;;13.10;44.70;;;;;;5129710;27;47211;-15
2021/12/25 03:46:00;;;;;;;1.20;0.80;;;13.10;44.80;;;;;;5129852;27;46991;-16
2021/12/25 03:48:56;;;;;;;0.53;0.53;;;13.10;44.70;;;;;;5129967;27;47109;-15
2021/12/25 03:59:35;;;;;;;0.73;0.73;;;13.10;44.70;;;;;;5127925;27;46955;-15
2021/12/25 04:02:09;;;;;;;0.90;0.90;;;13.10;44.90;;;;;;5129359;27;46929;-15
2021/12/25 04:04:38;;;;;;;0.70;0.70;;;13.10;44.70;;;;;;5129230;27;46979;-15
2021/12/25 04:07:09;;;;;;;0.70;0.70;;;13.10;44.70;;;;;;5129373;27;46875;-15
2021/12/25 04:09:38;;;;;;;0.80;0.70;;;13.10;44.70;;;;;;5129600;27;46903;-15
2021/12/25 04:12:06;;;;;;;0.77;0.77;;;13.10;44.90;;;;;;5129210;27;46854;-14
2021/12/25 04:14:33;;;;;;;1.00;0.90;;;13.10;44.80;;;;;;5129232;27;46841;-15
2021/12/25 04:16:59;;;;;;;1.30;0.80;;;13.10;44.80;;;;;;5129334;27;46921;-15
2021/12/25 04:19:27;;;;;;;1.07;0.97;;;13.10;44.80;;;;;;5129244;27;46899;-16
2021/12/25 04:21:58;;;;;;;0.70;0.70;;;13.10;44.90;;;;;;5128183;27;49109;-16
2021/12/25 04:24:26;;;;;;;0.80;0.80;;;13.10;44.80;;;;;;5128739;27;46818;-15
2021/12/25 04:26:53;;;;;;;0.70;0.70;;;13.10;44.80;;;;;;5129174;27;46872;-15
2021/12/25 04:29:39;;;;;;;0.90;0.90;;;13.10;44.90;;;;;;5128774;27;47098;-15
2021/12/25 04:32:51;;;;;;;0.90;0.90;;;13.10;45.40;;;;;;5128898;27;48111;-15
2021/12/25 05:03:00;;;;;;;0.80;0.80;;;13.00;44.90;;;;;;5125978;27;46920;-15
2021/12/25 05:05:29;;;;;;;0.80;0.70;;;13.00;45.00;;;;;;5128102;27;49049;-16
2021/12/25 05:07:57;;;;;;;0.83;0.83;;;13.00;45.10;;;;;;5128300;27;46841;-15
2021/12/25 05:10:25;;;;;;;0.80;0.80;;;13.00;45.10;;;;;;5128301;27;47012;-15
2021/12/25 05:12:51;;;;;;;0.90;0.90;;;13.00;45.10;;;;;;5128456;27;46884;-16
2021/12/25 05:15:18;;;;;;;1.00;0.90;;;13.10;45.10;;;;;;5128135;27;47702;-15
2021/12/25 05:17:45;;;;;;;0.70;0.70;;;13.10;45.10;;;;;;5128271;27;46963;-15
2021/12/25 05:20:12;;;;;;;0.73;0.73;;;13.10;45.10;;;;;;5127957;27;46833;-15
2021/12/25 05:22:38;;;;;;;0.80;0.80;;;13.10;45.00;;;;;;5128222;27;47127;-15
2021/12/25 05:25:07;;;;;;;1.10;1.00;;;13.10;45.00;;;;;;5127892;27;47952;-15
2021/12/25 05:27:34;;;;;;;0.70;0.70;;;13.10;45.00;;;;;;5128177;27;47244;-15
2021/12/25 05:30:00;;;;;;;0.80;0.80;;;13.10;44.90;;;;;;5127555;27;46831;-15
2021/12/25 05:32:27;;;;;;;0.80;0.80;;;13.10;45.00;;;;;;5128090;27;47127;-15
2021/12/25 05:34:54;;;;;;;0.90;0.90;;;13.10;45.00;;;;;;5127874;27;48219;-15
2021/12/25 05:37:20;;;;;;;0.90;0.90;;;13.10;45.00;;;;;;5128017;27;46943;-15
2021/12/25 05:39:50;;;;;;;0.80;0.80;;;13.10;44.90;;;;;;5128047;27;46883;-15
2021/12/25 05:42:20;;;;;;;0.70;0.70;;;13.10;44.90;;;;;;5127884;27;47209;-15
2021/12/25 05:44:47;;;;;;;1.03;1.03;;;13.10;44.90;;;;;;5127443;27;49075;-15
2021/12/25 05:47:15;;;;;;;1.00;1.00;;;13.10;44.90;;;;;;5127746;27;47223;-15
2021/12/25 05:49:41;;;;;;;0.80;0.80;;;13.10;45.00;;;;;;5127952;27;47082;-15
2021/12/25 05:52:08;;;;;;;0.93;0.83;;;13.10;44.90;;;;;;5127866;27;46913;-15
2021/12/25 05:54:35;;;;;;;0.90;0.90;;;13.10;45.00;;;;;;5127438;27;48049;-15
2021/12/25 05:57:02;;;;;;;0.80;0.80;;;13.10;45.00;;;;;;5127721;27;47107;-16
2021/12/25 05:59:30;;;;;;;0.97;0.93;;;13.10;45.00;;;;;;5127289;27;46807;-15
2021/12/25 06:01:56;;;;;;;1.00;0.90;;;13.10;45.00;;;;;;5127881;27;46880;-15
2021/12/25 06:04:23;;;;;;;0.80;0.80;;;13.10;44.90;;;;;;5127341;27;48892;-15
2021/12/25 06:06:50;;;;;;;0.90;0.90;;;13.10;45.60;;;;;;5127286;27;46856;-14
2021/12/25 06:09:18;;;;;;;0.80;0.80;;;13.10;44.90;;;;;;5127421;27;47066;-15
2021/12/25 06:11:45;;;;;;;1.07;1.00;;;13.10;45.00;;;;;;5127593;27;46966;-15
2021/12/25 06:14:18;;;;;;;0.90;0.90;;;13.10;45.00;;;;;;5127265;27;48811;-15
2021/12/25 06:16:46;;;;;;;0.80;0.80;;;13.10;45.10;;;;;;5127141;27;46738;-15
2021/12/25 06:19:12;;;;;;;0.70;0.70;;;13.10;45.00;;;;;;5126962;27;46858;-16
2021/12/25 06:21:39;;;;;;;0.90;0.90;;;13.10;45.00;;;;;;5127343;27;47112;-15
2021/12/25 06:24:06;;;;;;;0.83;0.83;;;13.10;45.10;;;;;;5126615;27;48275;-15
2021/12/25 06:26:33;;;;;;;1.10;1.00;;;13.10;45.10;;;;;;5127004;27;46821;-14
2021/12/25 06:29:00;;;;;;;0.90;0.90;;;13.10;45.00;;;;;;5126801;27;46887;-18
2021/12/25 06:31:26;;;;;;;1.00;1.00;;;13.10;45.00;;;;;;5127211;27;47280;-17
2021/12/25 06:33:54;;;;;;;0.80;0.80;;;13.10;45.10;;;;;;5126837;27;47069;-17
2021/12/25 06:36:21;;;;;;;1.00;1.00;;;13.10;45.00;;;;;;5127245;27;47415;-18
2021/12/25 06:38:48;;;;;;;0.70;0.70;;;13.10;45.10;;;;;;5126702;27;46818;-17
2021/12/25 06:41:14;;;;;;;1.13;1.03;;;13.10;45.00;;;;;;5127071;27;47012;-18
2021/12/25 06:43:41;;;;;;;0.83;0.83;;;13.10;45.10;;;;;;5126119;27;48923;-17
2021/12/25 06:46:08;;;;;;;0.90;0.90;;;13.10;45.00;;;;;;5126712;27;46892;-18
2021/12/25 06:48:35;;;;;;;0.90;0.90;;;13.10;45.10;;;;;;5126946;27;46820;-18
2021/12/25 06:51:03;;;;;;;1.02;1.02;;;13.10;45.20;;;;;;5127142;27;46817;-17
2021/12/25 06:53:30;;;;;;;0.90;0.90;;;13.10;45.10;;;;;;5126621;27;48016;-18
2021/12/25 06:55:56;;;;;;;0.90;0.90;;;13.10;45.10;;;;;;5126748;27;46999;-18
2021/12/25 06:58:23;;;;;;;0.80;0.80;;;13.10;45.00;;;;;;5126810;27;46867;-18
2021/12/25 07:00:50;;;;;;;0.80;0.80;;;13.10;45.10;;;;;;5126900;27;47343;-18
2021/12/25 07:03:18;;;;;;;1.03;1.03;;;13.10;45.10;;;;;;5126556;27;47827;-17
2021/12/25 07:05:45;;;;;;;1.02;1.02;;;13.10;45.70;;;;;;5126748;27;47810;-18
2021/12/25 07:08:13;;;;;;;0.80;0.80;;;13.10;45.10;;;;;;5126718;27;46883;-19
2021/12/25 07:10:40;;;;;;;1.20;1.10;;;13.10;45.10;;;;;;5126634;27;46804;-17
2021/12/25 07:13:07;;;;;;;0.90;0.90;;;13.10;45.10;;;;;;5126428;27;48884;-17
2021/12/25 07:15:34;;;;;;;1.07;0.97;;;13.10;45.00;;;;;;5126114;27;46739;-18
2021/12/25 07:18:01;;;;;;;0.87;0.87;;;13.10;45.10;;;;;;5126386;27;46834;-17
2021/12/25 07:20:28;;;;;;;1.00;1.00;;;13.10;45.60;;;;;;5126575;27;47071;-17
2021/12/25 07:22:54;;;;;;;0.73;0.73;;;13.10;45.00;;;;;;5126429;27;47890;-17
2021/12/25 07:25:24;;;;;;;1.10;1.00;;;13.10;45.00;;;;;;5126211;27;46909;-18
2021/12/25 07:27:51;;;;;;;0.87;0.87;;;13.10;45.00;;;;;;5126537;27;47009;-18
2021/12/25 07:30:18;;;;;;;0.87;0.70;;;13.10;45.10;;;;;;5126149;27;47233;-17
2021/12/25 07:32:44;;;;;;;1.27;1.00;;;13.10;45.10;;;;;;5125923;27;47223;-18
2021/12/25 07:35:11;;;;;;;0.83;0.83;;;13.10;45.10;;;;;;5126017;27;46916;-18
2021/12/25 07:37:38;;;;;;;0.80;0.80;;;13.10;45.10;;;;;;5126367;27;46867;-17
2021/12/25 07:40:06;;;;;;;0.90;0.90;;;13.10;45.00;;;;;;5126206;27;47042;-17
2021/12/25 07:42:34;;;;;;;0.90;0.90;;;13.10;45.60;;;;;;5126188;27;47164;-17
2021/12/25 07:45:03;;;;;;;0.85;0.85;;;13.10;45.10;;;;;;5125696;27;47258;-17
2021/12/25 07:47:31;;;;;;;1.13;1.00;;;13.10;45.10;;;;;;5126315;27;46892;-18
2021/12/25 07:49:59;;;;;;;1.00;1.00;;;13.10;45.10;;;;;;5126060;27;47233;-18
2021/12/25 07:52:25;;;;;;;1.30;0.97;;;13.10;45.00;;;;;;5125716;27;47004;-17
2021/12/25 07:54:52;;;;;;;0.70;0.70;;;13.10;45.00;;;;;;5125634;27;46879;-17
2021/12/25 07:57:19;;;;;;;0.90;0.90;;;13.10;45.00;;;;;;5128565;27;46775;-18
2021/12/25 07:59:47;;;;;;;1.00;1.00;;;13.10;45.00;;;;;;5129293;27;47275;-17
2021/12/25 08:02:14;;;;;;;1.00;1.00;;;13.10;44.90;;;;;;5129496;27;47945;-17
2021/12/25 08:04:41;;;;;;;0.80;0.80;;;13.20;44.90;;;;;;5129279;27;46986;-18
2021/12/25 08:07:08;;;;;;;1.03;1.03;;;13.10;45.00;;;;;;5129276;27;46803;-18
2021/12/25 08:09:35;;;;;;;0.80;0.80;;;13.10;45.00;;;;;;5129408;27;47276;-17
2021/12/25 08:12:03;;;;;;;1.00;0.90;;;13.10;44.90;;;;;;5129338;27;46949;-18
2021/12/25 08:14:30;;;;;;;0.70;0.70;;;13.10;44.90;;;;;;5129095;27;47321;-18
2021/12/25 08:17:00;;;;;;;1.00;1.00;;;13.10;44.90;;;;;;5128981;27;46912;-17
2021/12/25 08:19:27;;;;;;;0.80;0.80;;;13.10;44.90;;;;;;5129494;27;46820;-18
2021/12/25 08:21:54;;;;;;;1.03;0.93;;;13.10;44.90;;;;;;5129166;27;48214;-17
2021/12/25 08:24:20;;;;;;;1.10;1.00;;;13.10;44.90;;;;;;5128636;27;47108;-17
2021/12/25 08:26:48;;;;;;;0.80;0.80;;;13.10;44.90;;;;;;5129313;27;46846;-18
2021/12/25 08:29:15;;;;;;;0.90;0.90;;;13.20;44.90;;;;;;5129091;27;47002;-18
2021/12/25 08:31:41;;;;;;;1.00;1.00;;;13.20;45.00;;;;;;5129103;27;48102;-17
2021/12/25 08:34:10;;;;;;;1.27;1.13;;;13.20;44.90;;;;;;5128488;27;47529;-18
2021/12/25 08:36:36;;;;;;;0.80;0.80;;;13.20;44.90;;;;;;5128791;27;46885;-17
2021/12/25 08:39:04;;;;;;;0.83;0.83;;;13.20;44.90;;;;;;5128798;27;46841;-17
2021/12/25 08:41:31;;;;;;;1.00;1.00;;;13.20;44.90;;;;;;5128837;27;48103;-18
2021/12/25 08:44:04;;;;;;;1.00;0.80;;;13.20;44.90;;;;;;5128212;27;47112;-17
2021/12/25 08:46:44;;;;;;;0.80;0.80;;;13.20;44.90;;;;;;5128753;27;46816;-17
2021/12/25 08:49:15;;;;;;;1.20;1.10;;;13.20;45.50;;;;;;5128670;27;47139;-17
2021/12/25 08:51:43;;;;;;;0.97;0.97;;;13.10;44.90;;;;;;5128655;27;47943;-17
2021/12/25 08:54:10;;;;;;;1.07;1.00;;;13.20;45.00;;;;;;5128371;27;47188;-17
2021/12/25 08:56:37;;;;;;;0.80;0.80;;;13.10;44.90;;;;;;5128657;27;46887;-17
2021/12/25 08:59:03;;;;;;;0.80;0.80;;;13.20;44.90;;;;;;5128415;27;47314;-17
2021/12/25 09:01:30;;;;;;;1.00;1.00;;;13.10;44.80;;;;;;5128554;27;48034;-18
2021/12/25 09:03:59;;;;;;;0.80;0.80;;;13.20;44.90;;;;;;5128549;27;46813;-18
2021/12/25 09:06:27;;;;;;;0.70;0.70;;;13.20;44.90;;;;;;5127848;27;46898;-18
2021/12/25 09:08:56;;;;;;;0.80;0.80;;;13.20;44.90;;;;;;5128742;27;46837;-18
2021/12/25 09:11:24;;;;;;;0.83;0.83;;;13.20;44.80;;;;;;5128127;27;47888;-17
2021/12/25 09:13:51;;;;;;;1.00;0.85;;;13.20;44.80;;;;;;5127770;27;47196;-17
2021/12/25 09:16:17;;;;;;;1.30;1.10;;;13.20;44.90;;;;;;5128448;27;46965;-18
2021/12/25 09:18:44;;;;;;;0.70;0.70;;;13.20;45.50;;;;;;5128274;27;46881;-18
2021/12/25 09:21:11;;;;;;;0.80;0.77;;;13.20;44.90;;;;;;5128091;27;46907;-18
2021/12/25 09:23:39;;;;;;;0.77;0.77;;;13.20;44.90;;;;;;5128199;27;46784;-17
2021/12/25 09:26:06;;;;;;;0.77;0.77;;;13.20;44.80;;;;;;5128213;27;46851;-18
2021/12/25 09:28:33;;;;;;;1.13;1.07;;;13.20;44.80;;;;;;5128294;27;47282;-18
2021/12/25 09:30:59;;;;;;;1.10;1.00;;;13.20;44.80;;;;;;5127893;27;47938;-17
2021/12/25 09:33:26;;;;;;;0.88;0.88;;;13.20;44.80;;;;;;5127982;27;46907;-17
2021/12/25 09:35:53;;;;;;;0.93;0.90;;;13.20;44.80;;;;;;5127795;27;46793;-18
2021/12/25 09:38:19;;;;;;;0.97;0.90;;;13.20;44.80;;;;;;5127930;27;47076;-18
2021/12/25 09:40:47;;;;;;;0.83;0.83;;;13.20;44.80;;;;;;5127648;27;47940;-18
2021/12/25 09:43:17;;;;;;;0.90;0.90;;;13.20;44.80;;;;;;5127568;27;46971;-18
2021/12/25 09:45:44;;;;;;;1.10;1.00;;;13.20;44.80;;;;;;5127088;27;46963;-17
2021/12/25 09:48:10;;;;;;;1.10;1.03;;;13.20;44.80;;;;;;5127751;27;47272;-18
2021/12/25 09:50:37;;;;;;;1.00;0.90;;;13.20;44.70;;;;;;5127737;27;48104;-18
2021/12/25 09:53:06;;;;;;;1.00;1.00;;;13.20;44.80;;;;;;5127744;27;47007;-18
2021/12/25 09:55:33;;;;;;;0.63;0.63;;;13.20;44.80;;;;;;5127174;27;46781;-17
2021/12/25 09:58:01;;;;;;;0.93;0.93;;;13.20;44.80;;;;;;5127732;27;47290;-18
2021/12/25 10:00:29;;;;;;;1.00;1.00;;;13.20;44.80;;;;;;5127169;27;47161;-17
2021/12/25 10:02:56;;;;;;;0.90;0.90;;;13.20;44.90;;;;;;5127303;27;46899;-17
2021/12/25 10:05:27;;;;;;;1.10;1.00;;;13.20;44.80;;;;;;5127241;27;46872;-17
2021/12/25 10:08:04;;;;;;;1.30;1.00;;;13.20;44.90;;;;;;5127496;27;46898;-18
2021/12/25 10:10:40;;;;;;;1.10;1.00;;;13.20;44.90;;;;;;5127081;27;47041;-17
2021/12/25 10:13:22;;;;;;;1.13;0.87;;;13.20;44.80;;;;;;5127298;27;46951;-17
2021/12/25 10:15:49;;;;;;;0.93;0.93;;;13.20;44.80;;;;;;5127530;27;46898;-18
2021/12/25 10:18:16;;;;;;;0.67;0.67;;;13.20;44.80;;;;;;5126530;27;46886;-18
2021/12/25 10:20:42;;;;;;;1.00;1.00;;;13.20;44.70;;;;;;5126748;27;48786;-17
2021/12/25 10:23:12;;;;;;;0.93;0.93;;;13.20;44.70;;;;;;5127190;27;46887;-18
2021/12/25 10:25:44;;;;;;;0.93;0.93;;;13.30;44.70;;;;;;5127223;27;46907;-17
2021/12/25 10:28:13;;;;;;;0.87;0.87;;;13.20;44.70;;;;;;5127546;27;47015;-17
2021/12/25 10:30:51;;;;;;;0.90;0.90;;;13.20;44.70;;;;;;5126919;27;48894;-18
2021/12/25 10:33:30;;;;;;;0.80;0.80;;;13.30;44.70;;;;;;5127062;27;47180;-18
2021/12/25 10:35:58;;;;;;;1.23;0.90;;;13.30;44.80;;;;;;5127195;27;46840;-17
2021/12/25 10:38:25;;;;;;;0.90;0.90;;;13.30;44.60;;;;;;5127009;27;47324;-18
2021/12/25 10:41:02;;;;;;;1.03;1.03;;;13.20;44.60;;;;;;5126588;27;48220;-17
2021/12/25 10:43:30;;;;;;;0.87;0.87;;;13.30;44.60;;;;;;5126711;27;47257;-17
2021/12/25 10:45:59;;;;;;;0.90;0.90;;;13.30;44.50;;;;;;5126635;27;46915;-17
2021/12/25 10:48:27;;;;;;;0.70;0.70;;;13.30;44.60;;;;;;5126662;27;46928;-17
2021/12/25 10:50:54;;;;;;;0.83;0.80;;;13.30;44.60;;;;;;5126500;27;48157;-18
2021/12/25 10:53:30;;;;;;;0.80;0.80;;;13.30;44.60;;;;;;5126644;27;46890;-18
2021/12/25 10:56:05;;;;;;;0.80;0.80;;;13.30;44.60;;;;;;5126762;27;46888;-18
2021/12/25 10:58:33;;;;;;;0.80;0.80;;;13.30;44.70;;;;;;5126722;27;46900;-18
2021/12/25 11:01:00;;;;;;;0.93;0.80;;;13.30;44.60;;;;;;5126905;27;48805;-16
2021/12/25 11:03:29;;;;;;;0.85;0.85;;;13.30;44.50;;;;;;5126582;27;46830;-18
2021/12/25 11:05:59;;;;;;;0.90;0.90;;;13.30;44.60;;;;;;5126732;27;46876;-17
2021/12/25 11:08:26;;;;;;;1.10;1.00;;;13.30;44.40;;;;;;5126844;27;46892;-18
2021/12/25 11:10:54;;;;;;;0.93;0.93;;;13.30;44.50;;;;;;5126366;27;48260;-18
2021/12/25 11:13:22;;;;;;;0.90;0.90;;;13.30;44.50;;;;;;5126099;27;47005;-18
2021/12/25 11:15:52;;;;;;;0.70;0.70;;;13.30;44.50;;;;;;5126460;27;46906;-17
2021/12/25 11:18:19;;;;;;;1.08;1.08;;;13.30;44.40;;;;;;5126657;27;47062;-17
2021/12/25 11:20:46;;;;;;;0.90;0.90;;;13.30;44.40;;;;;;5125895;27;49059;-17
2021/12/25 11:23:14;;;;;;;1.00;0.90;;;13.30;44.30;;;;;;5121629;27;47008;-17
2021/12/25 11:25:42;;;;;;;0.90;0.90;;;13.40;44.30;;;;;;5125048;27;47093;-17
2021/12/25 11:28:10;;;;;;;2.20;1.17;;;13.40;44.30;;;;;;5125996;27;46926;-18
2021/12/25 11:30:40;;;;;;;6.53;1.20;;;13.40;45.00;;;;;;5126797;27;49071;-17
2021/12/25 11:33:08;;;;;;;4.73;1.00;;;13.40;45.00;;;;;;5128865;27;46889;-19
2021/12/25 11:35:35;;;;;;;2.50;1.17;;;13.50;46.10;;;;;;5124507;27;46998;-17
2021/12/25 11:38:02;;;;;;;1.30;1.20;;;13.60;46.90;;;;;;5128852;27;46915;-19
2021/12/25 11:40:29;;;;;;;3.08;1.20;;;13.70;47.00;;;;;;5127869;27;46959;-18
2021/12/25 11:42:58;;;;;;;8.27;1.50;;;13.70;47.00;;;;;;5128261;27;46927;-19
2021/12/25 11:45:28;;;;;;;3.75;1.50;;;13.80;47.70;;;;;;5128657;27;47078;-18
2021/12/25 11:47:56;;;;;;;3.88;1.30;;;13.90;47.30;;;;;;5124810;27;47070;-18
2021/12/25 11:50:26;;;;;;;1.70;1.20;;;14.00;47.40;;;;;;5128474;27;48120;-18
2021/12/25 11:53:08;;;;;;;2.70;1.33;;;14.00;47.60;;;;;;5128623;27;47478;-19
2021/12/25 11:55:52;;;;;;;3.45;1.60;;;14.00;47.60;;;;;;5128653;27;46912;-18
2021/12/25 11:58:44;;;;;;;3.00;1.60;;;14.00;47.80;;;;;;5126829;27;47081;-18
2021/12/25 12:01:32;;;;;;;1.80;1.52;;;14.10;48.30;;;;;;5128507;27;47125;-19
2021/12/25 12:03:59;;;;;;;3.42;2.90;;;14.10;48.30;;;;;;5124902;27;47004;-18
2021/12/25 12:07:02;;;;;;;6.07;2.63;;;14.20;48.10;;;;;;5128323;27;47222;-19
2021/12/25 12:09:31;;;;;;;6.55;2.50;;;14.30;47.60;;;;;;5126470;27;47093;-18
2021/12/25 12:12:12;;;;;;;3.38;2.10;;;14.30;47.50;;;;;;5124326;27;49089;-18
2021/12/25 12:14:39;;;;;;;1.98;1.80;;;14.40;47.30;;;;;;5124478;27;47288;-18
2021/12/25 12:17:07;;;;;;;4.85;2.25;;;14.40;47.10;;;;;;5131646;27;46976;-19
2021/12/25 12:20:02;;;;;;;2.17;1.98;;;14.50;47.10;;;;;;5128433;27;47296;-18
2021/12/25 12:22:56;;;;;;;2.88;2.22;;;14.50;47.20;;;;;;5112142;27;47117;-18
2021/12/25 12:25:47;;;;;;;6.90;2.58;;;14.70;47.80;;;;;;5127521;27;47121;-18
2021/12/25 12:28:14;;;;;;;3.00;2.70;;;15.40;46.70;;;;;;5128117;27;47152;-18
2021/12/25 12:30:52;;;;;;;4.40;2.42;;;16.00;45.70;;;;;;5128537;27;47170;-27
2021/12/25 12:33:32;;;;;;;3.30;2.30;;;16.60;44.80;;;;;;5131698;27;49961;-18
2021/12/25 12:35:59;;;;;;;2.72;2.30;;;17.20;44.00;;;;;;5123721;27;47003;-18
2021/12/25 12:38:31;;;;;;;2.50;2.08;;;17.60;43.30;;;;;;5128018;27;47003;-18
2021/12/25 12:41:14;;;;;;;1.80;1.70;;;17.90;42.50;;;;;;5128441;27;46998;-19
2021/12/25 12:43:52;;;;;;;1.70;1.60;;;18.30;42.00;;;;;;5127150;27;47910;-19
2021/12/25 12:46:19;;;;;;;1.67;1.58;;;18.70;41.70;;;;;;5125056;27;46961;-19
2021/12/25 12:49:04;;;;;;;1.70;1.60;;;19.00;40.90;;;;;;5127876;27;47134;-18
2021/12/25 12:51:31;;;;;;;1.60;1.50;;;19.30;40.40;;;;;;5123823;27;46940;-18
2021/12/25 12:53:59;;;;;;;1.60;1.50;;;19.50;40.30;;;;;;5127249;27;47063;-18
2021/12/25 12:56:26;;;;;;;1.40;1.30;;;19.80;39.80;;;;;;5127671;27;46907;-18
2021/12/25 12:58:53;;;;;;;2.10;1.70;;;20.00;39.30;;;;;;5127088;27;46871;-18
2021/12/25 13:01:20;;;;;;;1.95;1.80;;;20.30;39.30;;;;;;5128020;27;47273;-19
2021/12/25 13:03:47;;;;;;;6.38;4.97;;;20.50;38.60;;;;;;5126340;27;48842;-19
2021/12/25 13:06:15;;;;;;;6.15;5.35;;;20.40;38.10;;;;;;5127491;27;47250;-18
2021/12/25 13:08:44;;;;;;;6.53;5.90;;;20.20;38.70;;;;;;5127698;27;47109;-18
2021/12/25 13:11:17;;;;;;;6.22;5.72;;;20.00;39.20;;;;;;5127498;27;47515;-19
2021/12/25 13:13:52;;;;;;;5.85;5.35;;;20.20;39.10;;;;;;5127251;27;49237;-19
2021/12/25 13:16:19;;;;;;;5.18;4.72;;;20.30;39.60;;;;;;5127341;27;46896;-18
2021/12/25 13:18:47;;;;;;;5.15;4.75;;;20.60;38.70;;;;;;5126644;27;47032;-18
2021/12/25 13:21:15;;;;;;;5.20;4.00;;;20.80;38.50;;;;;;5127635;27;47230;-18
2021/12/25 13:23:49;;;;;;;4.47;3.67;;;21.10;37.80;;;;;;5126959;27;46915;-18
2021/12/25 13:26:19;;;;;;;4.00;3.60;;;21.20;37.20;;;;;;5123671;27;46995;-18
2021/12/25 13:28:47;;;;;;;9.38;7.20;;;21.40;37.20;;;;;;5127066;27;46745;-18
2021/12/25 13:31:15;;;;;;;12.20;8.82;;;21.50;36.90;;;;;;5127420;27;47359;-19
2021/12/25 13:33:45;;;;;;;8.88;8.02;;;21.30;37.00;;;;;;5125616;27;48239;-18
2021/12/25 13:36:12;;;;;;;8.13;7.25;;;21.30;37.10;;;;;;5127052;27;46992;-18
2021/12/25 13:38:50;;;;;;;6.53;5.72;;;21.40;36.70;;;;;;5126665;27;46936;-18
2021/12/25 13:41:27;;;;;;;7.65;5.20;;;21.50;36.50;;;;;;5127477;27;47000;-18
2021/12/25 13:44:08;;;;;;;5.10;4.60;;;21.60;36.60;;;;;;5122762;27;48216;-18
2021/12/25 13:46:43;;;;;;;6.90;4.18;;;21.80;36.70;;;;;;5126879;27;47420;-18
2021/12/25 13:49:26;;;;;;;3.90;3.60;;;22.00;36.30;;;;;;5126688;27;46888;-18
2021/12/25 13:51:52;;;;;;;3.25;3.05;;;22.10;36.00;;;;;;5127857;27;46921;-18